sensor_id;sensor_type;location;lat;lon;timestamp;P1;durP1;ratioP1;P2;durP2;ratioP2
78382;SDS011;67668;52.294;4.692;2023-08-08T00:01:49;5.25;;;1.45;;
78382;SDS011;67668;52.294;4.692;2023-08-08T00:04:14;8.00;;;1.70;;
78382;SDS011;67668;52.294;4.692;2023-08-08T00:06:41;4.95;;;2.13;;
78382;SDS011;67668;52.294;4.692;2023-08-08T00:09:06;3.33;;;1.70;;
78382;SDS011;67668;52.294;4.692;2023-08-08T00:11:32;6.70;;;1.75;;
78382;SDS011;67668;52.294;4.692;2023-08-08T00:13:58;3.60;;;1.45;;
78382;SDS011;67668;52.294;4.692;2023-08-08T00:16:23;4.25;;;1.77;;
78382;SDS011;67668;52.294;4.692;2023-08-08T00:18:49;3.97;;;1.73;;
78382;SDS011;67668;52.294;4.692;2023-08-08T00:21:15;4.22;;;1.95;;
78382;SDS011;67668;52.294;4.692;2023-08-08T00:23:41;4.45;;;1.42;;
78382;SDS011;67668;52.294;4.692;2023-08-08T00:26:07;3.45;;;1.50;;
78382;SDS011;67668;52.294;4.692;2023-08-08T00:28:32;4.50;;;1.05;;
78382;SDS011;67668;52.294;4.692;2023-08-08T00:30:58;2.55;;;1.17;;
78382;SDS011;67668;52.294;4.692;2023-08-08T00:33:23;6.13;;;1.43;;
78382;SDS011;67668;52.294;4.692;2023-08-08T00:35:49;4.30;;;1.25;;
78382;SDS011;67668;52.294;4.692;2023-08-08T00:38:14;2.35;;;1.17;;
78382;SDS011;67668;52.294;4.692;2023-08-08T00:40:41;4.93;;;1.85;;
78382;SDS011;67668;52.294;4.692;2023-08-08T00:43:06;3.28;;;1.30;;
78382;SDS011;67668;52.294;4.692;2023-08-08T00:45:32;2.60;;;1.10;;
78382;SDS011;67668;52.294;4.692;2023-08-08T00:47:58;4.10;;;1.20;;
78382;SDS011;67668;52.294;4.692;2023-08-08T00:50:23;3.75;;;1.02;;
78382;SDS011;67668;52.294;4.692;2023-08-08T00:52:49;3.50;;;1.08;;
78382;SDS011;67668;52.294;4.692;2023-08-08T00:55:15;2.17;;;0.80;;
78382;SDS011;67668;52.294;4.692;2023-08-08T00:57:40;4.88;;;1.10;;
78382;SDS011;67668;52.294;4.692;2023-08-08T01:00:07;7.18;;;1.05;;
78382;SDS011;67668;52.294;4.692;2023-08-08T01:02:35;1.73;;;0.82;;
78382;SDS011;67668;52.294;4.692;2023-08-08T01:05:02;2.75;;;1.15;;
78382;SDS011;67668;52.294;4.692;2023-08-08T01:07:47;3.85;;;1.13;;
78382;SDS011;67668;52.294;4.692;2023-08-08T01:10:18;2.58;;;0.98;;
78382;SDS011;67668;52.294;4.692;2023-08-08T01:12:51;3.65;;;1.25;;
78382;SDS011;67668;52.294;4.692;2023-08-08T01:15:20;3.33;;;1.10;;
78382;SDS011;67668;52.294;4.692;2023-08-08T01:17:47;3.45;;;1.05;;
78382;SDS011;67668;52.294;4.692;2023-08-08T01:20:13;2.85;;;1.42;;
78382;SDS011;67668;52.294;4.692;2023-08-08T01:23:43;1.25;;;0.68;;
78382;SDS011;67668;52.294;4.692;2023-08-08T01:25:55;4.30;;;0.90;;
78382;SDS011;67668;52.294;4.692;2023-08-08T01:28:23;5.60;;;1.08;;
78382;SDS011;67668;52.294;4.692;2023-08-08T01:30:50;3.17;;;1.02;;
78382;SDS011;67668;52.294;4.692;2023-08-08T01:33:16;2.03;;;0.95;;
78382;SDS011;67668;52.294;4.692;2023-08-08T01:35:43;4.30;;;1.02;;
78382;SDS011;67668;52.294;4.692;2023-08-08T01:38:17;5.03;;;1.13;;
78382;SDS011;67668;52.294;4.692;2023-08-08T01:40:46;2.85;;;1.23;;
78382;SDS011;67668;52.294;4.692;2023-08-08T01:43:13;7.05;;;1.40;;
78382;SDS011;67668;52.294;4.692;2023-08-08T01:45:40;6.70;;;1.10;;
78382;SDS011;67668;52.294;4.692;2023-08-08T01:48:10;3.40;;;1.10;;
78382;SDS011;67668;52.294;4.692;2023-08-08T01:50:36;3.45;;;0.82;;
78382;SDS011;67668;52.294;4.692;2023-08-08T01:53:02;1.80;;;0.68;;
78382;SDS011;67668;52.294;4.692;2023-08-08T01:55:29;4.97;;;1.02;;
78382;SDS011;67668;52.294;4.692;2023-08-08T01:57:55;3.58;;;1.10;;
78382;SDS011;67668;52.294;4.692;2023-08-08T02:00:20;3.05;;;0.80;;
78382;SDS011;67668;52.294;4.692;2023-08-08T02:02:45;1.95;;;0.70;;
78382;SDS011;67668;52.294;4.692;2023-08-08T02:05:11;1.42;;;0.57;;
78382;SDS011;67668;52.294;4.692;2023-08-08T02:07:36;2.67;;;0.93;;
78382;SDS011;67668;52.294;4.692;2023-08-08T02:10:02;4.30;;;0.77;;
78382;SDS011;67668;52.294;4.692;2023-08-08T02:12:28;3.17;;;0.88;;
78382;SDS011;67668;52.294;4.692;2023-08-08T02:14:55;4.25;;;0.88;;
78382;SDS011;67668;52.294;4.692;2023-08-08T02:17:24;2.10;;;0.80;;
78382;SDS011;67668;52.294;4.692;2023-08-08T02:19:51;5.07;;;0.60;;
78382;SDS011;67668;52.294;4.692;2023-08-08T02:22:16;7.63;;;0.90;;
78382;SDS011;67668;52.294;4.692;2023-08-08T02:24:42;1.20;;;0.70;;
78382;SDS011;67668;52.294;4.692;2023-08-08T02:27:07;1.97;;;0.60;;
78382;SDS011;67668;52.294;4.692;2023-08-08T02:29:33;3.03;;;0.70;;
78382;SDS011;67668;52.294;4.692;2023-08-08T02:31:58;4.03;;;1.17;;
78382;SDS011;67668;52.294;4.692;2023-08-08T02:34:24;3.10;;;0.90;;
78382;SDS011;67668;52.294;4.692;2023-08-08T02:36:50;3.45;;;0.80;;
78382;SDS011;67668;52.294;4.692;2023-08-08T02:39:15;1.20;;;0.52;;
78382;SDS011;67668;52.294;4.692;2023-08-08T02:41:41;4.97;;;1.00;;
78382;SDS011;67668;52.294;4.692;2023-08-08T02:44:07;3.20;;;0.82;;
78382;SDS011;67668;52.294;4.692;2023-08-08T02:46:33;3.57;;;0.67;;
78382;SDS011;67668;52.294;4.692;2023-08-08T02:48:58;1.50;;;0.80;;
78382;SDS011;67668;52.294;4.692;2023-08-08T02:51:25;3.20;;;0.50;;
78382;SDS011;67668;52.294;4.692;2023-08-08T02:53:50;5.28;;;0.52;;
78382;SDS011;67668;52.294;4.692;2023-08-08T02:56:15;3.80;;;0.70;;
78382;SDS011;67668;52.294;4.692;2023-08-08T02:58:41;4.70;;;0.98;;
78382;SDS011;67668;52.294;4.692;2023-08-08T03:01:06;3.10;;;0.65;;
78382;SDS011;67668;52.294;4.692;2023-08-08T03:03:32;4.60;;;1.20;;
78382;SDS011;67668;52.294;4.692;2023-08-08T03:05:57;2.23;;;0.40;;
78382;SDS011;67668;52.294;4.692;2023-08-08T03:08:22;2.78;;;0.82;;
78382;SDS011;67668;52.294;4.692;2023-08-08T03:10:49;1.25;;;0.60;;
78382;SDS011;67668;52.294;4.692;2023-08-08T03:13:14;2.67;;;0.85;;
78382;SDS011;67668;52.294;4.692;2023-08-08T03:15:40;2.25;;;0.35;;
78382;SDS011;67668;52.294;4.692;2023-08-08T03:18:05;3.10;;;0.60;;
78382;SDS011;67668;52.294;4.692;2023-08-08T03:20:30;2.30;;;0.60;;
78382;SDS011;67668;52.294;4.692;2023-08-08T03:22:56;1.73;;;0.60;;
78382;SDS011;67668;52.294;4.692;2023-08-08T03:25:22;1.65;;;0.60;;
78382;SDS011;67668;52.294;4.692;2023-08-08T03:27:48;1.38;;;0.68;;
78382;SDS011;67668;52.294;4.692;2023-08-08T03:30:13;3.10;;;0.50;;
78382;SDS011;67668;52.294;4.692;2023-08-08T03:32:39;2.40;;;1.90;;
78382;SDS011;67668;52.294;4.692;2023-08-08T03:35:04;2.83;;;0.90;;
78382;SDS011;67668;52.294;4.692;2023-08-08T03:37:31;2.08;;;0.63;;
78382;SDS011;67668;52.294;4.692;2023-08-08T03:39:56;2.45;;;0.60;;
78382;SDS011;67668;52.294;4.692;2023-08-08T03:42:22;2.87;;;0.90;;
78382;SDS011;67668;52.294;4.692;2023-08-08T03:44:47;4.03;;;0.80;;
78382;SDS011;67668;52.294;4.692;2023-08-08T03:47:12;4.00;;;1.52;;
78382;SDS011;67668;52.294;4.692;2023-08-08T03:49:38;3.08;;;0.60;;
78382;SDS011;67668;52.294;4.692;2023-08-08T03:52:03;5.03;;;0.50;;
78382;SDS011;67668;52.294;4.692;2023-08-08T03:54:29;3.38;;;0.95;;
78382;SDS011;67668;52.294;4.692;2023-08-08T03:56:54;1.52;;;0.63;;
78382;SDS011;67668;52.294;4.692;2023-08-08T03:59:20;4.30;;;0.88;;
78382;SDS011;67668;52.294;4.692;2023-08-08T04:01:45;3.97;;;0.70;;
78382;SDS011;67668;52.294;4.692;2023-08-08T04:04:11;4.43;;;0.50;;
78382;SDS011;67668;52.294;4.692;2023-08-08T04:06:36;1.88;;;0.50;;
78382;SDS011;67668;52.294;4.692;2023-08-08T04:09:02;4.43;;;0.60;;
78382;SDS011;67668;52.294;4.692;2023-08-08T04:11:27;2.45;;;0.52;;
78382;SDS011;67668;52.294;4.692;2023-08-08T04:13:53;5.10;;;0.80;;
78382;SDS011;67668;52.294;4.692;2023-08-08T04:16:18;5.77;;;0.60;;
78382;SDS011;67668;52.294;4.692;2023-08-08T04:18:43;2.10;;;0.63;;
78382;SDS011;67668;52.294;4.692;2023-08-08T04:21:09;3.88;;;0.85;;
78382;SDS011;67668;52.294;4.692;2023-08-08T04:23:35;3.88;;;0.75;;
78382;SDS011;67668;52.294;4.692;2023-08-08T04:26:01;2.72;;;0.60;;
78382;SDS011;67668;52.294;4.692;2023-08-08T04:28:27;4.60;;;0.95;;
78382;SDS011;67668;52.294;4.692;2023-08-08T04:30:52;3.72;;;0.60;;
78382;SDS011;67668;52.294;4.692;2023-08-08T04:33:18;2.80;;;1.00;;
78382;SDS011;67668;52.294;4.692;2023-08-08T04:35:43;4.10;;;0.90;;
78382;SDS011;67668;52.294;4.692;2023-08-08T04:38:09;4.85;;;1.42;;
78382;SDS011;67668;52.294;4.692;2023-08-08T04:40:34;2.17;;;0.80;;
78382;SDS011;67668;52.294;4.692;2023-08-08T04:43:01;2.63;;;0.73;;
78382;SDS011;67668;52.294;4.692;2023-08-08T04:45:27;5.10;;;0.93;;
78382;SDS011;67668;52.294;4.692;2023-08-08T04:47:54;5.68;;;1.08;;
78382;SDS011;67668;52.294;4.692;2023-08-08T04:50:20;1.50;;;0.55;;
78382;SDS011;67668;52.294;4.692;2023-08-08T04:52:45;5.57;;;1.17;;
78382;SDS011;67668;52.294;4.692;2023-08-08T04:55:11;2.05;;;0.77;;
78382;SDS011;67668;52.294;4.692;2023-08-08T04:57:36;4.87;;;0.83;;
78382;SDS011;67668;52.294;4.692;2023-08-08T05:00:01;2.67;;;0.70;;
78382;SDS011;67668;52.294;4.692;2023-08-08T05:02:30;2.90;;;0.50;;
78382;SDS011;67668;52.294;4.692;2023-08-08T05:04:55;3.15;;;0.60;;
78382;SDS011;67668;52.294;4.692;2023-08-08T05:07:21;3.55;;;0.57;;
78382;SDS011;67668;52.294;4.692;2023-08-08T05:09:46;2.45;;;0.50;;
78382;SDS011;67668;52.294;4.692;2023-08-08T05:12:12;1.98;;;0.70;;
78382;SDS011;67668;52.294;4.692;2023-08-08T05:14:38;4.13;;;0.60;;
78382;SDS011;67668;52.294;4.692;2023-08-08T05:17:04;4.15;;;0.80;;
78382;SDS011;67668;52.294;4.692;2023-08-08T05:19:29;3.83;;;0.50;;
78382;SDS011;67668;52.294;4.692;2023-08-08T05:21:56;2.65;;;0.70;;
78382;SDS011;67668;52.294;4.692;2023-08-08T05:24:21;2.60;;;0.52;;
78382;SDS011;67668;52.294;4.692;2023-08-08T05:26:47;1.63;;;0.60;;
78382;SDS011;67668;52.294;4.692;2023-08-08T05:29:13;3.28;;;0.80;;
78382;SDS011;67668;52.294;4.692;2023-08-08T05:31:38;2.42;;;0.68;;
78382;SDS011;67668;52.294;4.692;2023-08-08T05:34:03;3.53;;;0.60;;
78382;SDS011;67668;52.294;4.692;2023-08-08T05:36:29;8.30;;;0.90;;
78382;SDS011;67668;52.294;4.692;2023-08-08T05:38:54;1.97;;;0.60;;
78382;SDS011;67668;52.294;4.692;2023-08-08T05:41:20;3.58;;;0.60;;
78382;SDS011;67668;52.294;4.692;2023-08-08T05:43:45;1.77;;;0.40;;
78382;SDS011;67668;52.294;4.692;2023-08-08T05:46:10;4.22;;;0.90;;
78382;SDS011;67668;52.294;4.692;2023-08-08T05:48:36;5.32;;;0.75;;
78382;SDS011;67668;52.294;4.692;2023-08-08T05:51:01;2.85;;;0.57;;
78382;SDS011;67668;52.294;4.692;2023-08-08T05:53:30;1.60;;;0.32;;
78382;SDS011;67668;52.294;4.692;2023-08-08T05:55:56;3.65;;;0.43;;
78382;SDS011;67668;52.294;4.692;2023-08-08T05:58:21;3.92;;;0.75;;
78382;SDS011;67668;52.294;4.692;2023-08-08T06:00:47;8.38;;;0.70;;
78382;SDS011;67668;52.294;4.692;2023-08-08T06:03:12;2.65;;;0.47;;
78382;SDS011;67668;52.294;4.692;2023-08-08T06:05:39;2.50;;;0.30;;
78382;SDS011;67668;52.294;4.692;2023-08-08T06:08:04;6.03;;;0.55;;
78382;SDS011;67668;52.294;4.692;2023-08-08T06:10:32;7.20;;;0.70;;
78382;SDS011;67668;52.294;4.692;2023-08-08T06:12:58;1.48;;;0.50;;
78382;SDS011;67668;52.294;4.692;2023-08-08T06:15:24;1.92;;;0.40;;
78382;SDS011;67668;52.294;4.692;2023-08-08T06:17:49;3.78;;;0.40;;
78382;SDS011;67668;52.294;4.692;2023-08-08T06:20:15;2.93;;;0.60;;
78382;SDS011;67668;52.294;4.692;2023-08-08T06:22:41;2.13;;;0.47;;
78382;SDS011;67668;52.294;4.692;2023-08-08T06:25:07;4.88;;;0.73;;
78382;SDS011;67668;52.294;4.692;2023-08-08T06:27:32;1.90;;;0.40;;
78382;SDS011;67668;52.294;4.692;2023-08-08T06:29:58;3.00;;;0.43;;
78382;SDS011;67668;52.294;4.692;2023-08-08T06:32:24;1.95;;;0.35;;
78382;SDS011;67668;52.294;4.692;2023-08-08T06:34:49;6.70;;;0.60;;
78382;SDS011;67668;52.294;4.692;2023-08-08T06:37:15;5.45;;;0.77;;
78382;SDS011;67668;52.294;4.692;2023-08-08T06:39:40;3.20;;;0.50;;
78382;SDS011;67668;52.294;4.692;2023-08-08T06:42:07;3.40;;;0.82;;
78382;SDS011;67668;52.294;4.692;2023-08-08T06:44:32;7.72;;;0.77;;
78382;SDS011;67668;52.294;4.692;2023-08-08T06:46:58;2.90;;;0.70;;
78382;SDS011;67668;52.294;4.692;2023-08-08T06:49:24;4.50;;;0.50;;
78382;SDS011;67668;52.294;4.692;2023-08-08T06:51:49;4.40;;;0.50;;
78382;SDS011;67668;52.294;4.692;2023-08-08T06:54:15;4.83;;;0.70;;
78382;SDS011;67668;52.294;4.692;2023-08-08T06:56:40;1.95;;;0.50;;
78382;SDS011;67668;52.294;4.692;2023-08-08T06:59:06;1.33;;;0.50;;
78382;SDS011;67668;52.294;4.692;2023-08-08T07:01:31;2.83;;;0.38;;
78382;SDS011;67668;52.294;4.692;2023-08-08T07:03:56;2.70;;;0.32;;
78382;SDS011;67668;52.294;4.692;2023-08-08T07:06:22;4.43;;;0.70;;
78382;SDS011;67668;52.294;4.692;2023-08-08T07:08:48;3.65;;;0.47;;
78382;SDS011;67668;52.294;4.692;2023-08-08T07:11:13;6.40;;;0.50;;
78382;SDS011;67668;52.294;4.692;2023-08-08T07:13:38;4.20;;;1.02;;
78382;SDS011;67668;52.294;4.692;2023-08-08T07:16:04;3.80;;;0.70;;
78382;SDS011;67668;52.294;4.692;2023-08-08T07:18:30;1.88;;;0.50;;
78382;SDS011;67668;52.294;4.692;2023-08-08T07:20:56;2.42;;;0.73;;
78382;SDS011;67668;52.294;4.692;2023-08-08T07:23:23;6.65;;;0.77;;
78382;SDS011;67668;52.294;4.692;2023-08-08T07:25:48;1.00;;;0.30;;
78382;SDS011;67668;52.294;4.692;2023-08-08T07:28:14;3.40;;;0.40;;
78382;SDS011;67668;52.294;4.692;2023-08-08T07:30:42;2.78;;;0.45;;
78382;SDS011;67668;52.294;4.692;2023-08-08T07:33:08;2.40;;;0.40;;
78382;SDS011;67668;52.294;4.692;2023-08-08T07:35:34;1.40;;;0.40;;
78382;SDS011;67668;52.294;4.692;2023-08-08T07:38:01;4.30;;;0.55;;
78382;SDS011;67668;52.294;4.692;2023-08-08T07:40:27;3.90;;;0.52;;
78382;SDS011;67668;52.294;4.692;2023-08-08T07:42:52;3.47;;;0.77;;
78382;SDS011;67668;52.294;4.692;2023-08-08T07:45:18;3.42;;;0.60;;
78382;SDS011;67668;52.294;4.692;2023-08-08T07:47:44;0.82;;;0.40;;
78382;SDS011;67668;52.294;4.692;2023-08-08T07:50:09;0.63;;;0.32;;
78382;SDS011;67668;52.294;4.692;2023-08-08T07:52:36;2.78;;;0.50;;
78382;SDS011;67668;52.294;4.692;2023-08-08T07:55:02;1.58;;;0.45;;
78382;SDS011;67668;52.294;4.692;2023-08-08T07:57:28;1.42;;;0.32;;
78382;SDS011;67668;52.294;4.692;2023-08-08T07:59:55;2.20;;;0.30;;
78382;SDS011;67668;52.294;4.692;2023-08-08T08:02:21;4.30;;;0.50;;
78382;SDS011;67668;52.294;4.692;2023-08-08T08:04:46;2.35;;;0.45;;
78382;SDS011;67668;52.294;4.692;2023-08-08T08:07:11;2.33;;;0.43;;
78382;SDS011;67668;52.294;4.692;2023-08-08T08:09:39;1.80;;;0.70;;
78382;SDS011;67668;52.294;4.692;2023-08-08T08:12:07;1.33;;;0.52;;
78382;SDS011;67668;52.294;4.692;2023-08-08T08:14:33;1.38;;;0.55;;
78382;SDS011;67668;52.294;4.692;2023-08-08T08:16:59;1.50;;;0.28;;
78382;SDS011;67668;52.294;4.692;2023-08-08T08:19:26;1.27;;;0.35;;
78382;SDS011;67668;52.294;4.692;2023-08-08T08:21:52;1.35;;;0.40;;
78382;SDS011;67668;52.294;4.692;2023-08-08T08:24:17;1.27;;;0.35;;
78382;SDS011;67668;52.294;4.692;2023-08-08T08:26:43;1.53;;;0.57;;
78382;SDS011;67668;52.294;4.692;2023-08-08T08:29:09;1.73;;;0.35;;
78382;SDS011;67668;52.294;4.692;2023-08-08T08:31:34;2.25;;;0.40;;
78382;SDS011;67668;52.294;4.692;2023-08-08T08:34:02;2.58;;;0.45;;
78382;SDS011;67668;52.294;4.692;2023-08-08T08:36:28;10.52;;;0.85;;
78382;SDS011;67668;52.294;4.692;2023-08-08T08:38:54;1.73;;;0.43;;
78382;SDS011;67668;52.294;4.692;2023-08-08T08:41:20;2.60;;;0.50;;
78382;SDS011;67668;52.294;4.692;2023-08-08T08:46:20;1.33;;;0.45;;
78382;SDS011;67668;52.294;4.692;2023-08-08T08:48:47;1.27;;;0.40;;
78382;SDS011;67668;52.294;4.692;2023-08-08T08:51:14;1.50;;;0.25;;
78382;SDS011;67668;52.294;4.692;2023-08-08T08:53:41;1.25;;;0.47;;
78382;SDS011;67668;52.294;4.692;2023-08-08T08:56:08;1.17;;;0.50;;
78382;SDS011;67668;52.294;4.692;2023-08-08T08:58:34;4.78;;;0.60;;
78382;SDS011;67668;52.294;4.692;2023-08-08T09:01:00;4.15;;;0.50;;
78382;SDS011;67668;52.294;4.692;2023-08-08T09:03:32;2.08;;;0.55;;
78382;SDS011;67668;52.294;4.692;2023-08-08T09:05:58;1.58;;;0.47;;
78382;SDS011;67668;52.294;4.692;2023-08-08T09:08:24;1.92;;;0.50;;
78382;SDS011;67668;52.294;4.692;2023-08-08T09:10:50;1.17;;;0.40;;
78382;SDS011;67668;52.294;4.692;2023-08-08T09:13:16;2.38;;;0.50;;
78382;SDS011;67668;52.294;4.692;2023-08-08T09:15:41;2.60;;;0.70;;
78382;SDS011;67668;52.294;4.692;2023-08-08T09:18:07;2.67;;;0.60;;
78382;SDS011;67668;52.294;4.692;2023-08-08T09:20:33;2.55;;;0.50;;
78382;SDS011;67668;52.294;4.692;2023-08-08T09:23:01;1.10;;;0.20;;
78382;SDS011;67668;52.294;4.692;2023-08-08T09:25:27;3.45;;;0.68;;
78382;SDS011;67668;52.294;4.692;2023-08-08T09:27:52;3.00;;;0.70;;
78382;SDS011;67668;52.294;4.692;2023-08-08T09:30:18;2.75;;;0.55;;
78382;SDS011;67668;52.294;4.692;2023-08-08T09:32:44;2.33;;;0.50;;
78382;SDS011;67668;52.294;4.692;2023-08-08T09:35:10;5.55;;;0.80;;
78382;SDS011;67668;52.294;4.692;2023-08-08T09:37:36;4.78;;;0.80;;
78382;SDS011;67668;52.294;4.692;2023-08-08T09:40:03;1.95;;;0.50;;
78382;SDS011;67668;52.294;4.692;2023-08-08T09:42:35;1.60;;;0.40;;
78382;SDS011;67668;52.294;4.692;2023-08-08T09:45:05;1.25;;;0.40;;
78382;SDS011;67668;52.294;4.692;2023-08-08T09:47:31;3.22;;;0.30;;
78382;SDS011;67668;52.294;4.692;2023-08-08T09:49:58;4.35;;;0.45;;
78382;SDS011;67668;52.294;4.692;2023-08-08T09:52:29;1.10;;;0.50;;
78382;SDS011;67668;52.294;4.692;2023-08-08T09:54:55;2.30;;;0.73;;
78382;SDS011;67668;52.294;4.692;2023-08-08T09:57:24;5.82;;;0.95;;
78382;SDS011;67668;52.294;4.692;2023-08-08T09:59:51;1.40;;;0.43;;
78382;SDS011;67668;52.294;4.692;2023-08-08T10:02:17;3.35;;;0.60;;
78382;SDS011;67668;52.294;4.692;2023-08-08T10:04:45;2.75;;;0.55;;
78382;SDS011;67668;52.294;4.692;2023-08-08T10:07:11;3.10;;;0.70;;
78382;SDS011;67668;52.294;4.692;2023-08-08T10:09:37;2.65;;;0.50;;
78382;SDS011;67668;52.294;4.692;2023-08-08T10:12:04;3.20;;;0.63;;
78382;SDS011;67668;52.294;4.692;2023-08-08T10:14:31;2.92;;;0.98;;
78382;SDS011;67668;52.294;4.692;2023-08-08T10:17:01;3.22;;;0.90;;
78382;SDS011;67668;52.294;4.692;2023-08-08T10:19:27;2.72;;;0.50;;
78382;SDS011;67668;52.294;4.692;2023-08-08T10:21:59;2.17;;;0.60;;
78382;SDS011;67668;52.294;4.692;2023-08-08T10:24:34;1.08;;;0.40;;
78382;SDS011;67668;52.294;4.692;2023-08-08T10:27:02;2.13;;;0.77;;
78382;SDS011;67668;52.294;4.692;2023-08-08T10:29:30;1.77;;;0.47;;
78382;SDS011;67668;52.294;4.692;2023-08-08T10:32:03;1.50;;;0.40;;
78382;SDS011;67668;52.294;4.692;2023-08-08T10:34:40;1.20;;;0.30;;
78382;SDS011;67668;52.294;4.692;2023-08-08T10:37:10;2.03;;;0.60;;
78382;SDS011;67668;52.294;4.692;2023-08-08T10:39:53;3.10;;;0.50;;
78382;SDS011;67668;52.294;4.692;2023-08-08T10:42:31;3.92;;;0.60;;
78382;SDS011;67668;52.294;4.692;2023-08-08T10:44:58;2.35;;;0.80;;
78382;SDS011;67668;52.294;4.692;2023-08-08T10:47:34;1.52;;;0.30;;
78382;SDS011;67668;52.294;4.692;2023-08-08T10:50:05;2.25;;;0.65;;
78382;SDS011;67668;52.294;4.692;2023-08-08T10:58:04;2.17;;;0.73;;
78382;SDS011;67668;52.294;4.692;2023-08-08T11:00:35;3.15;;;0.60;;
78382;SDS011;67668;52.294;4.692;2023-08-08T11:03:06;1.73;;;0.52;;
78382;SDS011;67668;52.294;4.692;2023-08-08T11:05:38;1.13;;;0.45;;
78382;SDS011;67668;52.294;4.692;2023-08-08T11:08:10;2.58;;;0.90;;
78382;SDS011;67668;52.294;4.692;2023-08-08T11:10:36;2.22;;;0.68;;
78382;SDS011;67668;52.294;4.692;2023-08-08T11:13:06;4.43;;;0.73;;
78382;SDS011;67668;52.294;4.692;2023-08-08T11:15:33;4.80;;;0.50;;
78382;SDS011;67668;52.294;4.692;2023-08-08T11:18:00;2.55;;;0.80;;
78382;SDS011;67668;52.294;4.692;2023-08-08T11:20:32;3.90;;;0.60;;
78382;SDS011;67668;52.294;4.692;2023-08-08T11:22:59;1.15;;;0.60;;
78382;SDS011;67668;52.294;4.692;2023-08-08T11:25:25;4.53;;;0.77;;
78382;SDS011;67668;52.294;4.692;2023-08-08T11:27:52;2.55;;;0.55;;
78382;SDS011;67668;52.294;4.692;2023-08-08T11:30:18;0.88;;;0.38;;
78382;SDS011;67668;52.294;4.692;2023-08-08T11:32:46;3.03;;;0.40;;
78382;SDS011;67668;52.294;4.692;2023-08-08T11:35:15;1.65;;;0.52;;
78382;SDS011;67668;52.294;4.692;2023-08-08T11:37:43;1.33;;;0.40;;
78382;SDS011;67668;52.294;4.692;2023-08-08T11:40:12;2.60;;;0.50;;
78382;SDS011;67668;52.294;4.692;2023-08-08T11:42:39;2.30;;;0.30;;
78382;SDS011;67668;52.294;4.692;2023-08-08T11:45:06;3.10;;;0.40;;
78382;SDS011;67668;52.294;4.692;2023-08-08T11:47:34;2.72;;;0.43;;
78382;SDS011;67668;52.294;4.692;2023-08-08T11:50:02;1.77;;;0.38;;
78382;SDS011;67668;52.294;4.692;2023-08-08T11:52:29;2.63;;;0.73;;
78382;SDS011;67668;52.294;4.692;2023-08-08T11:54:55;4.13;;;1.02;;
78382;SDS011;67668;52.294;4.692;2023-08-08T11:57:21;4.50;;;1.02;;
78382;SDS011;67668;52.294;4.692;2023-08-08T11:59:48;3.22;;;1.00;;
78382;SDS011;67668;52.294;4.692;2023-08-08T12:02:14;4.43;;;0.63;;
78382;SDS011;67668;52.294;4.692;2023-08-08T12:04:43;4.25;;;0.47;;
78382;SDS011;67668;52.294;4.692;2023-08-08T12:07:12;1.35;;;0.32;;
78382;SDS011;67668;52.294;4.692;2023-08-08T12:09:37;2.13;;;0.40;;
78382;SDS011;67668;52.294;4.692;2023-08-08T12:12:04;1.83;;;0.40;;
78382;SDS011;67668;52.294;4.692;2023-08-08T12:14:30;2.80;;;0.88;;
78382;SDS011;67668;52.294;4.692;2023-08-08T12:17:05;3.92;;;1.05;;
78382;SDS011;67668;52.294;4.692;2023-08-08T12:19:31;3.78;;;0.50;;
78382;SDS011;67668;52.294;4.692;2023-08-08T12:21:57;1.55;;;0.38;;
78382;SDS011;67668;52.294;4.692;2023-08-08T12:24:22;3.88;;;0.47;;
78382;SDS011;67668;52.294;4.692;2023-08-08T12:26:48;2.35;;;0.88;;
78382;SDS011;67668;52.294;4.692;2023-08-08T12:29:13;2.25;;;0.52;;
78382;SDS011;67668;52.294;4.692;2023-08-08T12:31:39;2.33;;;0.70;;
78382;SDS011;67668;52.294;4.692;2023-08-08T12:34:07;0.77;;;0.38;;
78382;SDS011;67668;52.294;4.692;2023-08-08T12:36:40;3.63;;;0.47;;
78382;SDS011;67668;52.294;4.692;2023-08-08T12:39:07;2.58;;;0.70;;
78382;SDS011;67668;52.294;4.692;2023-08-08T12:41:35;1.52;;;0.50;;
78382;SDS011;67668;52.294;4.692;2023-08-08T12:44:01;4.20;;;0.75;;
78382;SDS011;67668;52.294;4.692;2023-08-08T12:46:28;2.35;;;0.50;;
78382;SDS011;67668;52.294;4.692;2023-08-08T12:48:54;2.67;;;0.60;;
78382;SDS011;67668;52.294;4.692;2023-08-08T12:51:19;1.60;;;0.52;;
78382;SDS011;67668;52.294;4.692;2023-08-08T12:53:44;2.42;;;0.60;;
78382;SDS011;67668;52.294;4.692;2023-08-08T12:56:11;3.13;;;0.70;;
78382;SDS011;67668;52.294;4.692;2023-08-08T12:58:37;3.92;;;0.52;;
78382;SDS011;67668;52.294;4.692;2023-08-08T13:01:04;3.28;;;0.45;;
78382;SDS011;67668;52.294;4.692;2023-08-08T13:03:36;6.13;;;0.73;;
78382;SDS011;67668;52.294;4.692;2023-08-08T13:06:22;1.70;;;0.70;;
78382;SDS011;67668;52.294;4.692;2023-08-08T13:08:48;2.42;;;0.50;;
78382;SDS011;67668;52.294;4.692;2023-08-08T13:11:14;1.55;;;0.40;;
78382;SDS011;67668;52.294;4.692;2023-08-08T13:13:40;2.08;;;0.47;;
78382;SDS011;67668;52.294;4.692;2023-08-08T13:16:05;5.22;;;0.75;;
78382;SDS011;67668;52.294;4.692;2023-08-08T13:18:32;1.55;;;0.52;;
78382;SDS011;67668;52.294;4.692;2023-08-08T13:20:58;3.72;;;0.82;;
78382;SDS011;67668;52.294;4.692;2023-08-08T13:23:23;7.32;;;0.90;;
78382;SDS011;67668;52.294;4.692;2023-08-08T13:25:50;3.13;;;0.55;;
78382;SDS011;67668;52.294;4.692;2023-08-08T13:28:15;1.27;;;0.40;;
78382;SDS011;67668;52.294;4.692;2023-08-08T13:30:41;2.90;;;0.52;;
78382;SDS011;67668;52.294;4.692;2023-08-08T13:33:08;2.28;;;0.55;;
78382;SDS011;67668;52.294;4.692;2023-08-08T13:35:38;3.95;;;1.25;;
78382;SDS011;67668;52.294;4.692;2023-08-08T13:38:04;7.72;;;0.60;;
78382;SDS011;67668;52.294;4.692;2023-08-08T13:40:30;1.65;;;0.43;;
78382;SDS011;67668;52.294;4.692;2023-08-08T13:42:55;4.07;;;0.95;;
78382;SDS011;67668;52.294;4.692;2023-08-08T13:45:21;2.75;;;0.68;;
78382;SDS011;67668;52.294;4.692;2023-08-08T13:47:48;1.30;;;0.50;;
78382;SDS011;67668;52.294;4.692;2023-08-08T13:50:14;3.05;;;0.68;;
78382;SDS011;67668;52.294;4.692;2023-08-08T13:52:40;4.75;;;0.98;;
78382;SDS011;67668;52.294;4.692;2023-08-08T13:55:06;2.95;;;0.88;;
78382;SDS011;67668;52.294;4.692;2023-08-08T13:57:33;7.43;;;1.30;;
78382;SDS011;67668;52.294;4.692;2023-08-08T13:59:59;4.20;;;1.35;;
78382;SDS011;67668;52.294;4.692;2023-08-08T14:02:28;5.22;;;0.95;;
78382;SDS011;67668;52.294;4.692;2023-08-08T14:04:59;6.03;;;0.88;;
78382;SDS011;67668;52.294;4.692;2023-08-08T14:08:03;3.28;;;1.10;;
78382;SDS011;67668;52.294;4.692;2023-08-08T14:10:49;2.08;;;0.55;;
78382;SDS011;67668;52.294;4.692;2023-08-08T14:13:17;3.15;;;0.68;;
78382;SDS011;67668;52.294;4.692;2023-08-08T14:15:51;2.53;;;0.93;;
78382;SDS011;67668;52.294;4.692;2023-08-08T14:18:30;3.03;;;0.82;;
78382;SDS011;67668;52.294;4.692;2023-08-08T14:23:31;3.63;;;1.00;;
78382;SDS011;67668;52.294;4.692;2023-08-08T14:25:56;4.60;;;1.00;;
78382;SDS011;67668;52.294;4.692;2023-08-08T14:28:22;3.42;;;0.80;;
78382;SDS011;67668;52.294;4.692;2023-08-08T14:30:47;2.40;;;0.73;;
78382;SDS011;67668;52.294;4.692;2023-08-08T14:33:14;5.20;;;0.88;;
78382;SDS011;67668;52.294;4.692;2023-08-08T14:35:40;3.55;;;0.90;;
78382;SDS011;67668;52.294;4.692;2023-08-08T14:38:06;2.45;;;0.90;;
78382;SDS011;67668;52.294;4.692;2023-08-08T14:40:31;1.15;;;0.50;;
78382;SDS011;67668;52.294;4.692;2023-08-08T14:42:58;2.50;;;0.60;;
78382;SDS011;67668;52.294;4.692;2023-08-08T14:45:24;1.50;;;0.50;;
78382;SDS011;67668;52.294;4.692;2023-08-08T14:47:49;1.70;;;0.68;;
78382;SDS011;67668;52.294;4.692;2023-08-08T14:50:15;3.70;;;0.70;;
78382;SDS011;67668;52.294;4.692;2023-08-08T14:52:41;3.90;;;0.80;;
78382;SDS011;67668;52.294;4.692;2023-08-08T14:55:07;1.02;;;0.40;;
78382;SDS011;67668;52.294;4.692;2023-08-08T14:57:33;6.22;;;0.77;;